createdAt,value
2019-03-15T00:00:58.524Z,92.40
2019-03-15T00:02:04.338Z,92.49
2019-03-15T00:03:07.027Z,92.76
2019-03-15T00:04:09.716Z,92.72
2019-03-15T00:05:12.363Z,92.72
2019-03-15T00:06:15.529Z,93.07
2019-03-15T00:07:19.697Z,93.07
2019-03-15T00:08:22.416Z,92.85
2019-03-15T00:09:25.156Z,92.66
2019-03-15T00:10:27.920Z,93.30
2019-03-15T00:11:31.110Z,93.23
2019-03-15T00:12:33.834Z,93.23
2019-03-15T00:13:36.875Z,93.41
2019-03-15T00:14:40.528Z,93.49
2019-03-15T00:15:43.673Z,93.49
2019-03-15T00:16:46.333Z,94.11
2019-03-15T00:17:50.343Z,94.01
2019-03-15T00:18:53.434Z,94.20
2019-03-15T00:19:58.855Z,94.20
2019-03-15T00:21:01.529Z,94.21
2019-03-15T00:22:06.712Z,94.23
2019-03-15T00:23:09.374Z,94.08
2019-03-15T00:24:12.550Z,94.08
2019-03-15T00:25:18.634Z,94.16
2019-03-15T00:26:24.905Z,94.36
2019-03-15T00:27:27.550Z,94.24
2019-03-15T00:28:30.319Z,94.24
2019-03-15T00:29:35.964Z,94.62
2019-03-15T00:30:38.689Z,94.66
2019-03-15T00:31:43.235Z,94.62
2019-03-15T00:32:46.317Z,94.62
2019-03-15T00:33:48.994Z,95.24
2019-03-15T00:34:52.014Z,95.00
2019-03-15T00:35:54.851Z,95.47
2019-03-15T00:37:00.024Z,95.39
2019-03-15T00:38:02.755Z,95.77
2019-03-15T00:39:05.780Z,95.74
2019-03-15T00:40:08.661Z,95.74
2019-03-15T00:41:20.358Z,95.09
2019-03-15T00:42:23.393Z,95.60
2019-03-15T00:43:26.526Z,95.07
2019-03-15T00:44:29.391Z,95.07
2019-03-15T00:45:35.955Z,95.38
2019-03-15T00:46:38.808Z,95.71
2019-03-15T00:47:41.480Z,96.06
2019-03-15T00:48:44.124Z,95.63
2019-03-15T00:49:47.149Z,95.63
2019-03-15T00:50:50.006Z,95.36
2019-03-15T00:51:53.061Z,95.50
2019-03-15T00:52:55.772Z,95.50
2019-03-15T00:53:58.562Z,95.93
2019-03-15T00:55:01.227Z,95.53
2019-03-15T00:56:05.627Z,95.53
2019-03-15T00:57:08.410Z,95.24
2019-03-15T00:58:11.525Z,94.87
2019-03-15T00:59:15.231Z,94.87
2019-03-15T01:00:17.944Z,95.44
2019-03-15T01:01:21.560Z,95.59
2019-03-15T01:02:24.324Z,95.47
2019-03-15T01:03:27.000Z,95.50
2019-03-15T01:04:30.091Z,95.43
2019-03-15T01:05:32.895Z,95.25
2019-03-15T01:06:36.102Z,95.25
2019-03-15T01:07:38.825Z,95.73
2019-03-15T01:08:41.930Z,95.73
2019-03-15T01:09:44.693Z,95.37
2019-03-15T01:10:47.727Z,95.58
2019-03-15T01:11:51.314Z,95.25
2019-03-15T01:12:55.639Z,95.55
2019-03-15T01:13:58.591Z,95.96
2019-03-15T01:15:04.114Z,96.02
2019-03-15T01:16:06.757Z,96.02
2019-03-15T01:17:09.787Z,95.98
2019-03-15T01:18:12.484Z,96.42
2019-03-15T01:19:15.232Z,96.04
2019-03-15T01:20:17.898Z,95.09
2019-03-15T01:21:20.633Z,95.23
2019-03-15T01:22:23.294Z,95.32
2019-03-15T01:23:26.905Z,95.97
2019-03-15T01:24:29.653Z,95.97
2019-03-15T01:25:32.970Z,95.67
2019-03-15T01:26:35.762Z,95.67
2019-03-15T01:27:38.911Z,95.86
2019-03-15T01:28:41.729Z,95.96
2019-03-15T01:29:45.051Z,96.39
2019-03-15T01:30:47.765Z,96.39
2019-03-15T01:31:50.630Z,96.33
2019-03-15T01:32:53.299Z,95.90
2019-03-15T01:33:55.960Z,96.45
2019-03-15T01:34:58.818Z,96.28
2019-03-15T01:36:01.846Z,95.84
2019-03-15T01:37:04.603Z,96.13
2019-03-15T01:38:07.381Z,96.13
2019-03-15T01:39:10.274Z,95.54
2019-03-15T01:40:12.978Z,95.82
2019-03-15T01:41:15.728Z,95.19
2019-03-15T01:42:20.858Z,95.19
2019-03-15T01:43:23.590Z,94.67
2019-03-15T01:44:26.386Z,93.88
2019-03-15T01:45:29.144Z,93.65
2019-03-15T01:46:32.297Z,93.86
2019-03-15T01:47:34.955Z,94.25
2019-03-15T01:48:41.132Z,94.57
2019-03-15T01:49:44.720Z,94.38
2019-03-15T01:50:48.009Z,94.57
2019-03-15T01:51:50.722Z,94.67
2019-03-15T01:52:53.394Z,94.61
2019-03-15T01:53:56.074Z,94.63
2019-03-15T01:54:59.114Z,94.63
2019-03-15T01:56:02.299Z,94.47
2019-03-15T01:57:05.005Z,94.36
2019-03-15T01:58:08.017Z,94.70
2019-03-15T01:59:10.773Z,94.74
2019-03-15T02:00:15.821Z,94.16
2019-03-15T02:01:20.697Z,94.02
2019-03-15T02:02:23.411Z,93.75
2019-03-15T02:03:26.097Z,93.90
2019-03-15T02:04:29.358Z,93.90
2019-03-15T02:05:32.499Z,93.69
2019-03-15T02:06:35.394Z,93.64
2019-03-15T02:07:40.842Z,93.71
2019-03-15T02:08:43.801Z,93.75
2019-03-15T02:09:46.788Z,93.75
2019-03-15T02:10:49.480Z,93.35
2019-03-15T02:11:52.181Z,94.13
2019-03-15T02:12:54.980Z,94.24
2019-03-15T02:13:58.111Z,94.24
2019-03-15T02:15:01.464Z,94.15
2019-03-15T02:16:04.126Z,94.06
2019-03-15T02:17:06.974Z,93.74
2019-03-15T02:18:09.727Z,93.46
2019-03-15T02:19:12.538Z,94.06
2019-03-15T02:20:15.713Z,93.55
2019-03-15T02:21:18.659Z,93.96
2019-03-15T02:22:21.304Z,93.96
2019-03-15T02:23:23.973Z,93.85
2019-03-15T02:24:27.314Z,93.44
2019-03-15T02:25:30.252Z,93.66
2019-03-15T02:26:33.258Z,93.75
2019-03-15T02:27:36.432Z,94.06
2019-03-15T02:28:39.264Z,93.87
2019-03-15T02:29:41.936Z,94.00
2019-03-15T02:30:44.795Z,93.72
2019-03-15T02:31:47.899Z,93.96
2019-03-15T02:32:50.984Z,93.96
2019-03-15T02:33:53.804Z,93.87
2019-03-15T02:34:56.626Z,94.13
2019-03-15T02:35:59.661Z,94.65
2019-03-15T02:37:02.605Z,94.71
2019-03-15T02:38:05.404Z,94.64
2019-03-15T02:39:08.706Z,94.83
2019-03-15T02:40:12.881Z,94.83
2019-03-15T02:41:18.767Z,94.49
2019-03-15T02:42:21.733Z,94.64
2019-03-15T02:43:24.547Z,95.07
2019-03-15T02:44:27.666Z,94.80
2019-03-15T02:45:31.058Z,94.93
2019-03-15T02:46:33.713Z,94.83
2019-03-15T02:47:36.606Z,94.77
2019-03-15T02:48:40.658Z,94.77
2019-03-15T02:49:43.772Z,95.16
2019-03-15T02:50:46.744Z,95.22
2019-03-15T02:51:50.044Z,95.49
2019-03-15T02:52:53.441Z,95.42
2019-03-15T02:53:56.306Z,95.42
2019-03-15T02:54:59.018Z,94.79
2019-03-15T02:56:01.803Z,94.83
2019-03-15T02:57:09.009Z,94.77
2019-03-15T02:58:11.950Z,95.06
2019-03-15T02:59:14.862Z,95.06
2019-03-15T03:00:18.326Z,95.04
2019-03-15T03:01:21.066Z,94.96
2019-03-15T03:02:24.233Z,95.00
2019-03-15T03:03:27.390Z,94.50
2019-03-15T03:04:30.529Z,94.35
2019-03-15T03:05:34.321Z,94.70
2019-03-15T03:06:37.368Z,94.91
2019-03-15T03:07:40.180Z,94.83
2019-03-15T03:08:43.012Z,94.14
2019-03-15T03:09:46.206Z,94.65
2019-03-15T03:10:49.439Z,94.66
2019-03-15T03:11:52.516Z,94.24
2019-03-15T03:12:55.800Z,94.50
2019-03-15T03:13:58.493Z,94.14
2019-03-15T03:15:01.172Z,94.25
2019-03-15T03:16:04.335Z,94.68
2019-03-15T03:17:07.001Z,94.61
2019-03-15T03:18:09.902Z,94.20
2019-03-15T03:19:12.586Z,94.42
2019-03-15T03:20:15.510Z,94.50
2019-03-15T03:21:18.620Z,94.50
2019-03-15T03:22:21.801Z,94.50
2019-03-15T03:23:24.562Z,94.51
2019-03-15T03:24:27.237Z,94.50
2019-03-15T03:25:29.950Z,94.62
2019-03-15T03:26:32.625Z,94.37
2019-03-15T03:27:35.290Z,94.37
2019-03-15T03:28:38.296Z,94.28
2019-03-15T03:29:41.189Z,94.25
2019-03-15T03:30:45.812Z,94.25
2019-03-15T03:31:48.298Z,94.36
2019-03-15T03:32:51.608Z,94.68
2019-03-15T03:33:54.343Z,94.24
2019-03-15T03:34:57.486Z,94.24
2019-03-15T03:36:00.978Z,94.19
2019-03-15T03:37:03.716Z,94.27
2019-03-15T03:38:07.766Z,94.18
2019-03-15T03:39:10.903Z,94.08
2019-03-15T03:40:13.588Z,94.13
2019-03-15T03:41:16.757Z,93.74
2019-03-15T03:42:19.441Z,94.05
2019-03-15T03:43:22.495Z,93.63
2019-03-15T03:44:25.354Z,94.02
2019-03-15T03:45:28.012Z,93.86
2019-03-15T03:46:30.770Z,93.77
2019-03-15T03:47:33.732Z,94.12
2019-03-15T03:48:36.862Z,94.65
2019-03-15T03:49:39.519Z,94.46
2019-03-15T03:50:42.276Z,93.74
2019-03-15T03:51:45.474Z,93.73
2019-03-15T03:52:48.169Z,93.73
2019-03-15T03:53:51.209Z,94.05
2019-03-15T03:54:54.136Z,93.51
2019-03-15T03:55:57.076Z,93.82
2019-03-15T03:57:00.065Z,93.82
2019-03-15T03:58:02.748Z,93.97
2019-03-15T03:59:05.390Z,94.37
2019-03-15T04:00:09.535Z,94.59
2019-03-15T04:01:12.647Z,94.34
2019-03-15T04:02:15.315Z,94.53
2019-03-15T04:03:18.545Z,94.28
2019-03-15T04:04:21.246Z,94.28
2019-03-15T04:05:24.456Z,94.95
2019-03-15T04:06:27.522Z,95.01
2019-03-15T04:07:30.168Z,94.76
2019-03-15T04:08:33.341Z,95.03
2019-03-15T04:09:36.167Z,95.03
2019-03-15T04:10:39.371Z,95.20
2019-03-15T04:11:54.695Z,95.15
2019-03-15T04:12:46.515Z,95.15
2019-03-15T04:13:49.238Z,94.76
2019-03-15T04:14:52.146Z,94.42
2019-03-15T04:15:54.870Z,94.39
2019-03-15T04:16:57.591Z,94.85
2019-03-15T04:18:00.355Z,94.45
2019-03-15T04:19:03.062Z,94.91
2019-03-15T04:20:05.745Z,95.17
2019-03-15T04:21:08.496Z,94.61
2019-03-15T04:22:11.229Z,94.03
2019-03-15T04:23:14.260Z,93.86
2019-03-15T04:24:16.984Z,94.01
2019-03-15T04:25:20.766Z,93.76
2019-03-15T04:26:23.872Z,93.76
2019-03-15T04:27:26.537Z,93.93
2019-03-15T04:28:29.859Z,93.93
2019-03-15T04:29:34.730Z,94.19
2019-03-15T04:30:37.489Z,94.33
2019-03-15T04:31:40.690Z,94.33
2019-03-15T04:32:44.251Z,94.64
2019-03-15T04:33:47.491Z,94.84
2019-03-15T04:34:50.298Z,94.84
2019-03-15T04:35:53.272Z,94.60
2019-03-15T04:36:55.941Z,94.68
2019-03-15T04:37:58.653Z,94.50
2019-03-15T04:39:01.530Z,94.15
2019-03-15T04:40:04.496Z,94.15
2019-03-15T04:41:07.190Z,94.37
2019-03-15T04:42:10.133Z,94.03
2019-03-15T04:43:12.877Z,94.24
2019-03-15T04:44:16.163Z,94.21
2019-03-15T04:45:20.779Z,94.32
2019-03-15T04:46:23.511Z,94.87
2019-03-15T04:47:26.514Z,94.64
2019-03-15T04:48:29.853Z,94.69
2019-03-15T04:49:32.505Z,94.73
2019-03-15T04:50:35.277Z,94.52
2019-03-15T04:51:40.989Z,94.67
2019-03-15T04:52:43.669Z,94.44
2019-03-15T04:53:46.381Z,94.41
2019-03-15T04:54:49.483Z,94.36
2019-03-15T04:55:52.386Z,94.45
2019-03-15T04:56:55.061Z,94.45
2019-03-15T04:57:57.736Z,95.17
2019-03-15T04:59:00.419Z,95.11
2019-03-15T05:00:03.119Z,95.11
2019-03-15T05:01:06.569Z,95.19
2019-03-15T05:02:11.246Z,94.78
2019-03-15T05:03:13.910Z,94.53
2019-03-15T05:04:16.628Z,94.23
2019-03-15T05:05:19.263Z,94.72
2019-03-15T05:06:22.032Z,94.72
2019-03-15T05:07:24.986Z,94.48
2019-03-15T05:08:27.763Z,94.55
2019-03-15T05:09:30.439Z,94.55
2019-03-15T05:10:33.108Z,93.93
2019-03-15T05:11:35.850Z,93.87
2019-03-15T05:12:38.760Z,94.30
2019-03-15T05:13:46.576Z,94.30
2019-03-15T05:14:51.119Z,93.96
2019-03-15T05:15:55.473Z,93.86
2019-03-15T05:16:58.321Z,94.23
2019-03-15T05:18:01.090Z,94.04
2019-03-15T05:19:05.323Z,94.55
2019-03-15T05:20:08.485Z,94.46
2019-03-15T05:21:12.690Z,93.88
2019-03-15T05:22:15.511Z,93.93
2019-03-15T05:23:21.172Z,93.75
2019-03-15T05:24:25.008Z,93.79
2019-03-15T05:25:29.971Z,93.99
2019-03-15T05:26:34.949Z,94.20
2019-03-15T05:27:40.361Z,94.37
2019-03-15T05:28:44.972Z,94.16
2019-03-15T05:29:47.694Z,94.34
2019-03-15T05:30:51.731Z,94.53
2019-03-15T05:31:54.412Z,94.53
2019-03-15T05:32:57.468Z,94.40
2019-03-15T05:34:00.357Z,94.57
2019-03-15T05:35:03.111Z,94.08
2019-03-15T05:36:05.873Z,94.49
2019-03-15T05:37:08.593Z,94.94
2019-03-15T05:38:14.457Z,94.38
2019-03-15T05:39:17.765Z,94.49
2019-03-15T05:40:20.916Z,94.09
2019-03-15T05:41:23.674Z,93.97
2019-03-15T05:42:26.346Z,93.97
2019-03-15T05:43:29.241Z,94.03
2019-03-15T05:44:32.943Z,93.88
2019-03-15T05:45:35.964Z,93.96
2019-03-15T05:46:39.513Z,93.81
2019-03-15T05:47:42.612Z,94.06
2019-03-15T05:48:46.907Z,93.86
2019-03-15T05:49:49.584Z,94.16
2019-03-15T05:50:52.299Z,94.03
2019-03-15T05:51:55.422Z,94.03
2019-03-15T05:52:58.096Z,93.72
2019-03-15T05:54:00.652Z,93.88
2019-03-15T05:55:03.416Z,93.61
2019-03-15T05:56:08.583Z,93.61
2019-03-15T05:57:15.428Z,93.62
2019-03-15T05:58:21.677Z,93.65
2019-03-15T05:59:23.060Z,93.63
2019-03-15T06:00:25.755Z,93.63
2019-03-15T06:01:28.629Z,93.73
2019-03-15T06:02:31.323Z,93.73
2019-03-15T06:03:47.417Z,93.79
2019-03-15T06:04:41.693Z,93.79
2019-03-15T06:05:44.379Z,94.08
2019-03-15T06:06:47.643Z,94.08
2019-03-15T06:07:50.395Z,94.32
2019-03-15T06:08:53.037Z,94.14
2019-03-15T06:09:55.777Z,93.87
2019-03-15T06:10:58.585Z,93.83
2019-03-15T06:12:01.268Z,93.87
2019-03-15T06:13:03.946Z,93.79
2019-03-15T06:14:06.673Z,93.79
2019-03-15T06:15:13.700Z,93.82
2019-03-15T06:16:20.883Z,94.15
2019-03-15T06:17:23.620Z,94.10
2019-03-15T06:18:29.175Z,94.30
2019-03-15T06:19:31.889Z,94.30
2019-03-15T06:20:34.725Z,94.78
2019-03-15T06:21:37.589Z,94.75
2019-03-15T06:22:40.873Z,94.72
2019-03-15T06:23:44.044Z,94.84
2019-03-15T06:24:47.048Z,94.94
2019-03-15T06:25:49.707Z,94.96
2019-03-15T06:26:52.403Z,94.87
2019-03-15T06:27:55.146Z,95.31
2019-03-15T06:29:01.809Z,95.48
2019-03-15T06:30:04.577Z,95.81
2019-03-15T06:44:04.192Z,96.13
2019-03-15T06:45:07.631Z,96.22
2019-03-15T06:46:10.484Z,96.54
2019-03-15T06:47:13.360Z,96.16
2019-03-15T06:48:16.229Z,96.16
2019-03-15T06:49:19.719Z,96.83
2019-03-15T06:50:23.695Z,96.93
2019-03-15T06:51:27.269Z,97.19
2019-03-15T06:52:32.211Z,97.82
2019-03-15T06:53:35.391Z,98.20
2019-03-15T06:54:38.066Z,97.62
2019-03-15T06:55:41.445Z,98.15
2019-03-15T06:56:44.538Z,98.11
2019-03-15T06:57:47.237Z,98.11
2019-03-15T06:58:53.095Z,98.18
2019-03-15T06:59:59.373Z,98.32
2019-03-15T07:01:00.666Z,98.50
2019-03-15T07:02:03.786Z,98.50
2019-03-15T07:03:13.665Z,98.59
2019-03-15T07:04:19.311Z,98.92
2019-03-15T07:05:23.691Z,99.30
2019-03-15T07:06:28.786Z,99.39
2019-03-15T07:07:32.181Z,99.10
2019-03-15T07:08:35.238Z,99.52
2019-03-15T07:09:40.188Z,99.22
2019-03-15T07:10:44.318Z,99.32
2019-03-15T07:11:47.138Z,99.58
2019-03-15T07:12:49.939Z,99.52
2019-03-15T07:13:53.324Z,100.00
2019-03-15T07:14:56.190Z,99.97
2019-03-15T07:15:59.259Z,99.92
2019-03-15T07:17:08.769Z,100.00
2019-03-15T07:18:12.646Z,100.00
2019-03-15T07:19:25.627Z,100.00
2019-03-15T07:20:21.240Z,100.00
2019-03-15T07:21:24.955Z,100.00
2019-03-15T07:22:27.951Z,100.00
2019-03-15T07:23:30.628Z,100.00
2019-03-15T07:24:36.309Z,100.00
2019-03-15T07:25:41.088Z,100.00
2019-03-15T07:26:44.020Z,100.00
2019-03-15T07:27:46.878Z,100.00
2019-03-15T07:28:49.585Z,100.00
2019-03-15T07:29:52.441Z,100.00
2019-03-15T07:30:55.348Z,100.00
2019-03-15T07:31:58.722Z,100.00
2019-03-15T07:33:03.012Z,100.00
2019-03-15T07:34:13.504Z,100.00
2019-03-15T07:35:16.110Z,100.00
2019-03-15T07:36:18.828Z,100.00
2019-03-15T07:37:21.803Z,100.00
2019-03-15T07:38:26.935Z,100.00
2019-03-15T07:39:29.890Z,100.00
2019-03-15T07:40:32.599Z,100.00
2019-03-15T07:41:36.484Z,100.00
2019-03-15T07:42:39.345Z,100.00
2019-03-15T07:43:42.625Z,100.00
2019-03-15T07:44:48.800Z,100.00
2019-03-15T07:45:53.012Z,100.00
2019-03-15T07:46:55.776Z,100.00
2019-03-15T07:47:58.808Z,100.00
2019-03-15T07:49:04.532Z,100.00
2019-03-15T07:50:07.702Z,100.00
2019-03-15T07:51:10.531Z,100.00
2019-03-15T07:52:13.203Z,100.00
2019-03-15T07:53:16.014Z,100.00
2019-03-15T07:54:18.859Z,100.00
2019-03-15T07:55:22.214Z,100.00
2019-03-15T07:56:28.683Z,100.00
2019-03-15T07:57:31.448Z,100.00
2019-03-15T07:58:34.256Z,100.00
2019-03-15T07:59:37.188Z,100.00
2019-03-15T08:00:42.406Z,100.00
2019-03-15T08:01:45.781Z,100.00
2019-03-15T08:02:49.094Z,100.00
2019-03-15T08:03:52.055Z,100.00
2019-03-15T08:04:54.902Z,100.00
2019-03-15T08:05:57.770Z,100.00
2019-03-15T08:07:00.722Z,100.00
2019-03-15T08:08:03.521Z,100.00
2019-03-15T08:09:08.098Z,100.00
2019-03-15T08:10:10.944Z,100.00
2019-03-15T08:11:13.875Z,100.00
2019-03-15T08:12:17.190Z,100.00
2019-03-15T08:13:20.061Z,100.00
2019-03-15T08:14:23.335Z,100.00
2019-03-15T08:15:26.629Z,100.00
2019-03-15T08:16:29.563Z,100.00
2019-03-15T08:17:32.698Z,100.00
2019-03-15T08:18:35.554Z,100.00
2019-03-15T08:19:38.593Z,100.00
2019-03-15T08:20:44.437Z,100.00
2019-03-15T08:21:49.765Z,100.00
2019-03-15T08:22:55.157Z,100.00
2019-03-15T08:24:04.437Z,100.00
2019-03-15T08:25:07.160Z,100.00
2019-03-15T08:26:09.924Z,100.00
2019-03-15T08:27:15.943Z,100.00
2019-03-15T08:28:17.526Z,100.00
2019-03-15T08:29:23.428Z,100.00
2019-03-15T08:30:26.685Z,100.00
2019-03-15T08:31:29.373Z,100.00
2019-03-15T08:32:36.223Z,100.00
2019-03-15T08:33:41.557Z,100.00
2019-03-15T08:34:44.843Z,100.00
2019-03-15T08:35:48.058Z,100.00
2019-03-15T08:36:50.826Z,100.00
2019-03-15T08:37:54.039Z,100.00
2019-03-15T08:38:57.009Z,100.00
2019-03-15T08:39:59.684Z,100.00
2019-03-15T08:41:03.247Z,100.00
2019-03-15T08:42:05.913Z,100.00
2019-03-15T08:43:08.815Z,100.00
2019-03-15T08:44:11.691Z,100.00
2019-03-15T08:45:14.908Z,100.00
2019-03-15T08:46:18.709Z,100.00
2019-03-15T08:47:26.107Z,100.00
2019-03-15T08:48:31.883Z,100.00
2019-03-15T08:49:34.041Z,100.00
2019-03-15T08:50:37.517Z,100.00
2019-03-15T08:51:40.317Z,100.00
2019-03-15T08:52:48.205Z,100.00
2019-03-15T08:53:55.142Z,100.00
2019-03-15T08:55:05.122Z,100.00
2019-03-15T08:56:06.900Z,100.00
2019-03-15T08:57:09.879Z,100.00
2019-03-15T08:58:21.661Z,100.00
2019-03-15T08:59:28.004Z,100.00
2019-03-15T09:00:30.935Z,100.00
2019-03-15T09:01:33.830Z,100.00
2019-03-15T09:02:36.795Z,100.00
2019-03-15T09:03:40.712Z,100.00
2019-03-15T09:04:45.645Z,100.00
2019-03-15T09:05:50.057Z,100.00
2019-03-15T09:06:55.478Z,100.00
2019-03-15T09:08:01.457Z,100.00
2019-03-15T09:09:05.061Z,100.00
2019-03-15T09:10:21.340Z,100.00
2019-03-15T09:11:15.533Z,100.00
2019-03-15T09:12:18.295Z,100.00
2019-03-15T09:13:21.619Z,100.00
2019-03-15T09:14:24.559Z,100.00
2019-03-15T09:15:30.981Z,100.00
2019-03-15T09:16:34.503Z,100.00
2019-03-15T09:17:37.406Z,100.00
2019-03-15T09:18:40.264Z,100.00
2019-03-15T09:19:49.422Z,100.00
2019-03-15T09:20:52.225Z,100.00
2019-03-15T09:21:55.512Z,100.00
2019-03-15T09:22:58.811Z,100.00
2019-03-15T09:24:01.605Z,100.00
2019-03-15T09:25:18.194Z,100.00
2019-03-15T09:26:10.550Z,100.00
2019-03-15T09:27:15.156Z,100.00
2019-03-15T09:28:18.039Z,100.00
2019-03-15T09:29:25.975Z,100.00
2019-03-15T09:30:30.566Z,100.00
2019-03-15T09:31:47.807Z,100.00
2019-03-15T09:32:48.055Z,100.00
2019-03-15T09:33:50.787Z,100.00
2019-03-15T09:34:55.734Z,100.00
2019-03-15T09:35:58.234Z,100.00
2019-03-15T09:37:01.113Z,100.00
2019-03-15T09:38:04.032Z,100.00
2019-03-15T09:39:08.463Z,100.00
2019-03-15T09:40:11.187Z,100.00
2019-03-15T09:41:31.432Z,100.00
2019-03-15T09:42:30.602Z,100.00
2019-03-15T09:43:36.353Z,100.00
2019-03-15T09:44:39.245Z,100.00
2019-03-15T09:45:42.135Z,100.00
2019-03-15T09:46:45.078Z,100.00
2019-03-15T09:47:49.660Z,100.00
2019-03-15T09:48:53.629Z,100.00
2019-03-15T09:49:56.390Z,100.00
2019-03-15T09:50:59.706Z,100.00
2019-03-15T09:52:02.457Z,100.00
2019-03-15T09:53:06.268Z,100.00
2019-03-15T09:54:10.395Z,100.00
2019-03-15T09:55:13.679Z,100.00
2019-03-15T09:56:20.550Z,100.00
2019-03-15T09:57:25.062Z,100.00
2019-03-15T09:58:31.034Z,100.00
2019-03-15T09:59:35.664Z,100.00
2019-03-15T10:00:45.682Z,100.00
2019-03-15T10:01:48.406Z,100.00
2019-03-15T10:02:51.222Z,100.00
2019-03-15T10:03:57.347Z,100.00
2019-03-15T10:05:10.205Z,100.00
2019-03-15T10:06:14.983Z,100.00
2019-03-15T10:07:17.103Z,100.00
2019-03-15T10:08:23.767Z,100.00
2019-03-15T10:09:27.128Z,100.00
2019-03-15T10:10:29.974Z,100.00
2019-03-15T10:11:33.249Z,100.00
2019-03-15T10:12:36.838Z,100.00
2019-03-15T10:13:39.801Z,100.00
2019-03-15T10:14:42.648Z,100.00
2019-03-15T10:15:45.617Z,100.00
2019-03-15T10:16:48.434Z,100.00
2019-03-15T10:17:51.240Z,100.00
2019-03-15T10:18:54.512Z,100.00
2019-03-15T10:20:03.751Z,100.00
2019-03-15T10:21:09.360Z,100.00
2019-03-15T10:22:12.440Z,100.00
2019-03-15T10:23:20.817Z,100.00
2019-03-15T10:24:23.660Z,100.00
2019-03-15T10:25:26.933Z,100.00
2019-03-15T10:26:29.602Z,100.00
2019-03-15T10:27:33.330Z,100.00
2019-03-15T10:28:36.192Z,100.00
2019-03-15T10:29:39.710Z,100.00
2019-03-15T10:30:42.593Z,100.00
2019-03-15T10:33:10.123Z,100.00
2019-03-15T10:34:13.336Z,100.00
2019-03-15T10:35:16.425Z,100.00
2019-03-15T10:36:22.447Z,100.00
2019-03-15T10:37:25.362Z,100.00
2019-03-15T10:38:28.514Z,100.00
2019-03-15T10:39:31.368Z,100.00
2019-03-15T10:40:34.117Z,100.00
2019-03-15T10:41:38.244Z,100.00
2019-03-15T10:45:17.751Z,100.00
2019-03-15T10:46:24.364Z,100.00
2019-03-15T10:47:27.214Z,100.00
2019-03-15T10:48:32.080Z,100.00
2019-03-15T10:49:34.973Z,100.00
2019-03-15T10:50:38.270Z,100.00
2019-03-15T10:51:46.855Z,100.00
2019-03-15T10:52:53.963Z,100.00
2019-03-15T10:54:04.895Z,100.00
2019-03-15T10:55:08.153Z,100.00
2019-03-15T10:56:15.852Z,100.00
2019-03-15T10:57:19.995Z,100.00
2019-03-15T10:58:24.374Z,100.00
2019-03-15T10:59:27.725Z,100.00
2019-03-15T11:00:32.505Z,100.00
2019-03-15T11:01:35.254Z,100.00
2019-03-15T11:02:37.950Z,100.00
2019-03-15T11:03:42.843Z,100.00
2019-03-15T11:04:45.379Z,100.00
2019-03-15T11:05:55.880Z,100.00
2019-03-15T11:07:00.732Z,100.00
2019-03-15T11:08:03.697Z,100.00
2019-03-15T11:09:06.500Z,100.00
2019-03-15T11:10:09.465Z,100.00
2019-03-15T11:11:15.458Z,100.00
2019-03-15T11:12:18.513Z,100.00
2019-03-15T11:13:21.344Z,100.00
2019-03-15T11:14:24.394Z,100.00
2019-03-15T11:15:27.332Z,100.00
2019-03-15T11:16:30.521Z,100.00
2019-03-15T11:17:33.483Z,100.00
2019-03-15T11:18:39.433Z,100.00
2019-03-15T11:19:43.744Z,100.00
2019-03-15T11:20:47.104Z,100.00
2019-03-15T11:21:49.924Z,100.00
2019-03-15T11:22:57.894Z,100.00
2019-03-15T11:24:00.652Z,100.00
2019-03-15T11:25:06.362Z,100.00
2019-03-15T11:26:13.912Z,100.00
2019-03-15T11:27:13.626Z,100.00
2019-03-15T11:28:16.629Z,100.00
2019-03-15T11:29:19.667Z,100.00
2019-03-15T11:42:52.192Z,100.00
2019-03-15T11:43:55.393Z,100.00
2019-03-15T11:44:58.358Z,100.00
2019-03-15T11:46:01.303Z,100.00
2019-03-15T11:47:07.060Z,100.00
2019-03-15T11:48:09.957Z,100.00
2019-03-15T11:49:16.694Z,100.00
2019-03-15T11:50:19.626Z,100.00
2019-03-15T11:51:22.548Z,100.00
2019-03-15T11:52:25.929Z,100.00
2019-03-15T11:53:31.399Z,100.00
2019-03-15T11:54:35.049Z,100.00
2019-03-15T11:55:37.969Z,100.00
2019-03-15T11:56:40.619Z,100.00
2019-03-15T11:57:43.507Z,100.00
2019-03-15T11:58:46.422Z,100.00
2019-03-15T11:59:49.455Z,100.00
2019-03-15T12:00:52.269Z,100.00
2019-03-15T12:02:04.105Z,100.00
2019-03-15T12:03:05.174Z,100.00
2019-03-15T12:04:08.361Z,100.00
2019-03-15T12:05:11.235Z,100.00
2019-03-15T12:06:14.488Z,100.00
2019-03-15T12:07:17.751Z,100.00
2019-03-15T12:08:25.877Z,100.00
2019-03-15T12:09:32.146Z,100.00
2019-03-15T12:10:34.814Z,100.00
2019-03-15T12:11:39.948Z,100.00
2019-03-15T12:12:42.964Z,100.00
2019-03-15T12:13:48.437Z,100.00
2019-03-15T12:14:55.903Z,100.00
2019-03-15T12:16:01.256Z,100.00
2019-03-15T12:17:05.570Z,100.00
2019-03-15T12:18:08.815Z,100.00
2019-03-15T12:19:12.374Z,100.00
2019-03-15T12:20:15.094Z,100.00
2019-03-15T12:21:18.657Z,100.00
2019-03-15T12:22:22.406Z,100.00
2019-03-15T12:23:27.859Z,100.00
2019-03-15T12:24:30.618Z,100.00
2019-03-15T12:25:33.713Z,100.00
2019-03-15T12:26:40.571Z,100.00
2019-03-15T12:27:41.181Z,100.00
2019-03-15T12:28:43.881Z,100.00
2019-03-15T12:29:46.571Z,100.00
2019-03-15T12:30:50.026Z,100.00
2019-03-15T12:31:52.872Z,100.00
2019-03-15T12:32:55.560Z,100.00
2019-03-15T12:34:00.318Z,100.00
2019-03-15T12:35:03.094Z,100.00
2019-03-15T12:36:06.266Z,100.00
2019-03-15T12:37:10.020Z,100.00
2019-03-15T12:38:15.241Z,100.00
2019-03-15T12:39:19.445Z,100.00
2019-03-15T12:40:22.388Z,100.00
2019-03-15T12:41:25.116Z,100.00
2019-03-15T12:42:27.827Z,100.00
2019-03-15T12:43:30.618Z,100.00
2019-03-15T12:44:35.915Z,100.00
2019-03-15T12:45:38.863Z,100.00
2019-03-15T12:46:45.334Z,100.00
2019-03-15T12:47:48.328Z,100.00
2019-03-15T12:48:51.099Z,100.00
2019-03-15T12:49:54.482Z,100.00
2019-03-15T12:51:04.721Z,100.00
2019-03-15T12:52:12.112Z,100.00
2019-03-15T12:53:15.153Z,100.00
2019-03-15T12:54:20.564Z,100.00
2019-03-15T12:55:26.255Z,100.00
2019-03-15T12:56:29.106Z,100.00
2019-03-15T12:57:32.021Z,100.00
2019-03-15T12:58:34.928Z,100.00
2019-03-15T12:59:37.770Z,100.00
2019-03-15T13:00:53.674Z,100.00
2019-03-15T13:01:56.966Z,100.00
2019-03-15T13:03:00.278Z,100.00
2019-03-15T13:04:03.307Z,100.00
2019-03-15T13:05:08.173Z,99.13
2019-03-15T13:06:13.916Z,99.88
2019-03-15T13:07:21.901Z,100.00
2019-03-15T13:08:27.656Z,100.00
2019-03-15T13:09:31.161Z,100.00
2019-03-15T13:10:34.189Z,100.00
2019-03-15T13:11:38.439Z,100.00
2019-03-15T13:12:41.377Z,98.91
2019-03-15T13:13:44.782Z,98.90
2019-03-15T13:14:47.780Z,99.23
2019-03-15T13:15:51.836Z,99.73
2019-03-15T13:16:54.586Z,99.73
2019-03-15T13:17:57.704Z,99.59
2019-03-15T13:19:01.087Z,100.00
2019-03-15T13:20:06.138Z,99.26
2019-03-15T13:21:09.280Z,99.74
2019-03-15T13:22:18.092Z,99.74
2019-03-15T13:23:25.699Z,99.06
2019-03-15T13:24:28.423Z,98.87
2019-03-15T13:25:34.201Z,98.82
2019-03-15T13:26:37.364Z,99.62
2019-03-15T13:27:40.402Z,99.62
2019-03-15T13:28:43.866Z,98.68
2019-03-15T13:29:46.700Z,98.95
2019-03-15T13:30:49.638Z,98.32
2019-03-15T13:31:52.680Z,98.32
2019-03-15T13:33:01.065Z,98.82
2019-03-15T13:34:03.872Z,98.77
2019-03-15T13:35:07.860Z,98.97
2019-03-15T13:36:15.425Z,98.97
2019-03-15T13:37:18.331Z,98.64
2019-03-15T13:38:21.527Z,98.64
2019-03-15T13:39:29.024Z,98.04
2019-03-15T13:40:31.809Z,98.12
2019-03-15T13:41:36.822Z,99.18
2019-03-15T13:42:39.651Z,99.24
2019-03-15T13:43:42.795Z,100.00
2019-03-15T13:44:46.052Z,99.75
2019-03-15T13:45:49.379Z,100.00
2019-03-15T13:46:53.414Z,100.00
2019-03-15T13:47:56.320Z,100.00
2019-03-15T13:48:59.461Z,97.99
2019-03-15T13:50:04.080Z,97.99
2019-03-15T13:51:12.857Z,98.23
2019-03-15T13:52:15.691Z,97.96
2019-03-15T13:53:20.384Z,97.61
2019-03-15T13:54:23.185Z,97.61
2019-03-15T13:55:28.158Z,98.24
2019-03-15T13:56:31.110Z,98.44
2019-03-15T13:57:34.409Z,97.99
2019-03-15T13:58:37.283Z,97.31
2019-03-15T13:59:40.003Z,99.78